Historyczne dane pomiarowe

Dodano dane terminowe – wersja testowa.

Dane z okresu 1951-2019

Wersja bazy: 1.34 [2019-03-16, lista zmian], aktualizacja planowana na 2019-04-15

Dane meteo z obszaru Polski uzyskane na podstawie danych udostępnionych przez Instytut Meteorologii i Gospodarki Wodnej – Państwowy Instytut Badawczy.

 

Wybierz Datę:    

       

TemperaturaWilgotnośćZachmurzenieWiatrCiśnienieWidzialnośćZjawiska
 Data    tng td wb rh cc ccl cl cm ch dir g1 g2 mslp ppp      
1994-08-11 00:00:00 16.0--- 14.7 15.292wxwxwx2wx--1009.4 996.5 0.0---wx
1994-08-11 01:00:00 15.8--- 13.3 14.385wxwxwx2wx--1009.2 996.3----wx
1994-08-11 02:00:00 15.4--- 13.4 14.288wxwxwxwx2wx--1008.7 995.8----wx
1994-08-11 03:00:00 15.3--- 11.7 13.279wxwxwxwx3wx--1008.2 995.3----wx
1994-08-11 04:00:00 14.6--- 11.7 12.982wxwxwx2wx--1008.2 995.3----wx
1994-08-11 05:00:00 16.3--- 12.8 14.280wxwxwxwx3wx--1007.3 994.5----wx
1994-08-11 06:00:00 18.3--- 13.3 15.373wxwxwx3wx--1007.7 994.9 0.0---wx
1994-08-11 07:00:00 19.9--- 13.9 16.268wxwxwx3wx--1007.2 994.5----wx
1994-08-11 08:00:00 20.9--- 13.9 16.664wxwxwx4wx--1007.0 994.4----wx
1994-08-11 09:00:00 21.9--- 14.0 17.061wxwxwx3wx--1006.7 994.1----wx
1994-08-11 10:00:00 22.5--- 14.3 17.460wxwxwxwx4wx--1006.3 993.7----wx
1994-08-11 11:00:00 23.5--- 12.9 17.051wxwxwxwx3wx--1005.8 993.3----wx
1994-08-11 12:00:00 24.5--- 12.8 17.348wxwxwxwx2wx--1005.2 992.7 0.0---wx
1994-08-11 13:00:00 25.1--- 12.1 17.244wxwxwxwx4wx--1004.9 992.5----wx
1994-08-11 14:00:00 24.8--- 12.4 17.246wxwxwxwx3wx--1004.8 992.4----wx
1994-08-11 15:00:00 24.3--- 12.7 17.248wxwxwxwx3wx--1004.8 992.3----wx
1994-08-11 16:00:00 23.8--- 12.1 16.748wxwxwxwx2wx--1005.0 992.5----wx
1994-08-11 17:00:00 22.6--- 15.7 18.265wxwxwx0wx--1005.1 992.6----wx
1994-08-11 18:00:00 21.0--- 15.8 17.772wxwxwxwx0wx--1005.2 992.6 0.0---wx
1994-08-11 19:00:00 19.3--- 15.3 16.878wxwxwxwx0wx--1005.5 992.8----wx
1994-08-11 20:00:00 18.2--- 15.2 16.382wxwxwxwxwx1wx--1005.4 992.7----wx
1994-08-11 21:00:00 18.4--- 15.5 16.683wxwxwxwxwx0wx--1005.7 993.0----wx
1994-08-11 22:00:00 18.6--- 15.7 16.883wxwxwxwx3wx--1005.7 993.0----wx
1994-08-11 23:00:00 18.1--- 15.9 16.787wxwxwxwx2wx--1005.7 993.0----wx

 

Źródłem pochodzenia danych jest Instytut Meteorologii i Gospodarki Wodnej – Państwowy Instytut Badawczy. Dane Instytutu Meteorologii i Gospodarki Wodnej – Państwowego Instytutu Badawczego zostały przetworzone.

Dane źródłowe można odnaleźć na stronie https://dane.imgw.pl